sensor_id;sensor_type;location;lat;lon;timestamp;pressure;altitude;pressure_sealevel;temperature;humidity
82476;BME280;72099;43.176;76.872;2024-01-15T00:02:37;90138.63;;;-3.15;80.42
82476;BME280;72099;43.176;76.872;2024-01-15T00:05:37;90167.94;;;-3.16;80.33
82476;BME280;72099;43.176;76.872;2024-01-15T00:08:38;90160.47;;;-3.23;81.28
82476;BME280;72099;43.176;76.872;2024-01-15T00:11:39;90152.78;;;-3.18;81.29
82476;BME280;72099;43.176;76.872;2024-01-15T00:14:40;90138.16;;;-3.07;80.50
82476;BME280;72099;43.176;76.872;2024-01-15T00:17:41;90143.06;;;-3.06;80.76
82476;BME280;72099;43.176;76.872;2024-01-15T00:20:42;90144.16;;;-2.86;80.89
82476;BME280;72099;43.176;76.872;2024-01-15T00:23:44;90143.44;;;-2.61;79.59
82476;BME280;72099;43.176;76.872;2024-01-15T00:26:45;90129.84;;;-2.37;80.47
82476;BME280;72099;43.176;76.872;2024-01-15T00:29:46;90110.56;;;-2.03;79.57
82476;BME280;72099;43.176;76.872;2024-01-15T00:32:47;90075.00;;;-1.91;77.95
82476;BME280;72099;43.176;76.872;2024-01-15T00:35:48;90039.47;;;-2.15;77.42
82476;BME280;72099;43.176;76.872;2024-01-15T00:38:49;90015.00;;;-2.38;78.48
82476;BME280;72099;43.176;76.872;2024-01-15T00:41:49;90007.25;;;-2.27;79.55
82476;BME280;72099;43.176;76.872;2024-01-15T00:44:50;89987.16;;;-2.25;78.13
82476;BME280;72099;43.176;76.872;2024-01-15T00:47:51;89971.97;;;-2.22;78.12
82476;BME280;72099;43.176;76.872;2024-01-15T00:50:52;89962.94;;;-2.14;77.75
82476;BME280;72099;43.176;76.872;2024-01-15T00:53:54;89949.28;;;-2.15;77.51
82476;BME280;72099;43.176;76.872;2024-01-15T00:56:55;89951.34;;;-2.12;77.58
82476;BME280;72099;43.176;76.872;2024-01-15T00:59:56;89940.47;;;-1.93;77.62
82476;BME280;72099;43.176;76.872;2024-01-15T01:02:57;89924.47;;;-1.90;76.61
82476;BME280;72099;43.176;76.872;2024-01-15T01:05:58;89907.50;;;-2.01;76.73
82476;BME280;72099;43.176;76.872;2024-01-15T01:08:59;89915.72;;;-1.89;78.21
82476;BME280;72099;43.176;76.872;2024-01-15T01:11:59;89869.22;;;-2.28;76.86
82476;BME280;72099;43.176;76.872;2024-01-15T01:15:00;89947.97;;;-2.02;77.09
82476;BME280;72099;43.176;76.872;2024-01-15T01:18:01;89947.44;;;-1.94;78.23
82476;BME280;72099;43.176;76.872;2024-01-15T01:21:02;89930.09;;;-1.73;77.51
82476;BME280;72099;43.176;76.872;2024-01-15T01:24:03;89951.19;;;-1.56;76.59
82476;BME280;72099;43.176;76.872;2024-01-15T01:27:04;89957.56;;;-1.48;77.23
82476;BME280;72099;43.176;76.872;2024-01-15T01:30:05;89966.34;;;-1.49;76.59
82476;BME280;72099;43.176;76.872;2024-01-15T01:33:06;89976.63;;;-1.39;76.73
82476;BME280;72099;43.176;76.872;2024-01-15T01:36:10;89974.59;;;-1.42;76.22
82476;BME280;72099;43.176;76.872;2024-01-15T01:39:11;89917.28;;;-1.93;76.56
82476;BME280;72099;43.176;76.872;2024-01-15T01:42:12;89975.19;;;-1.65;76.78
82476;BME280;72099;43.176;76.872;2024-01-15T01:45:13;89961.56;;;-1.86;77.05
82476;BME280;72099;43.176;76.872;2024-01-15T01:48:14;89983.50;;;-1.89;77.26
82476;BME280;72099;43.176;76.872;2024-01-15T01:51:15;89984.31;;;-2.03;77.26
82476;BME280;72099;43.176;76.872;2024-01-15T01:54:16;89977.09;;;-2.12;78.03
82476;BME280;72099;43.176;76.872;2024-01-15T01:57:17;89973.25;;;-2.14;77.52
82476;BME280;72099;43.176;76.872;2024-01-15T02:00:19;89964.75;;;-2.25;77.33
82476;BME280;72099;43.176;76.872;2024-01-15T02:03:20;89957.03;;;-2.35;77.93
82476;BME280;72099;43.176;76.872;2024-01-15T02:06:22;89957.06;;;-2.45;78.48
82476;BME280;72099;43.176;76.872;2024-01-15T02:09:23;89951.59;;;-2.13;78.99
82476;BME280;72099;43.176;76.872;2024-01-15T02:12:24;89958.72;;;-1.85;78.90
82476;BME280;72099;43.176;76.872;2024-01-15T02:15:25;89936.28;;;-1.69;77.63
82476;BME280;72099;43.176;76.872;2024-01-15T02:18:25;89922.31;;;-1.63;77.41
82476;BME280;72099;43.176;76.872;2024-01-15T02:21:26;89895.34;;;-1.86;76.55
82476;BME280;72099;43.176;76.872;2024-01-15T02:24:29;89903.94;;;-2.05;78.05
82476;BME280;72099;43.176;76.872;2024-01-15T02:27:30;89894.03;;;-1.83;78.61
82476;BME280;72099;43.176;76.872;2024-01-15T02:30:31;89871.59;;;-1.83;78.28
82476;BME280;72099;43.176;76.872;2024-01-15T02:33:32;89898.03;;;-1.57;77.05
82476;BME280;72099;43.176;76.872;2024-01-15T02:36:33;89887.53;;;-1.65;77.01
82476;BME280;72099;43.176;76.872;2024-01-15T02:39:34;89875.75;;;-1.82;77.49
82476;BME280;72099;43.176;76.872;2024-01-15T02:42:34;89890.88;;;-1.65;78.58
82476;BME280;72099;43.176;76.872;2024-01-15T02:45:35;89918.53;;;-1.31;77.59
82476;BME280;72099;43.176;76.872;2024-01-15T02:48:36;89935.28;;;-1.24;77.02
82476;BME280;72099;43.176;76.872;2024-01-15T02:51:37;89929.38;;;-1.29;76.89
82476;BME280;72099;43.176;76.872;2024-01-15T02:54:38;89945.09;;;-1.26;77.02
82476;BME280;72099;43.176;76.872;2024-01-15T02:57:39;89952.50;;;-1.14;77.94
82476;BME280;72099;43.176;76.872;2024-01-15T03:00:40;89960.25;;;-1.19;77.16
82476;BME280;72099;43.176;76.872;2024-01-15T03:03:41;89979.56;;;-1.06;77.23
82476;BME280;72099;43.176;76.872;2024-01-15T03:06:41;89973.09;;;-1.04;77.32
82476;BME280;72099;43.176;76.872;2024-01-15T03:09:42;89985.34;;;-1.25;76.23
82476;BME280;72099;43.176;76.872;2024-01-15T03:12:43;89991.91;;;-1.53;76.71
82476;BME280;72099;43.176;76.872;2024-01-15T03:15:44;89998.72;;;-1.92;77.25
82476;BME280;72099;43.176;76.872;2024-01-15T03:18:51;90000.56;;;-2.23;78.39
82476;BME280;72099;43.176;76.872;2024-01-15T03:21:52;90004.13;;;-1.94;79.59
82476;BME280;72099;43.176;76.872;2024-01-15T03:24:53;89981.94;;;-1.85;79.64
82476;BME280;72099;43.176;76.872;2024-01-15T03:27:54;89990.94;;;-1.67;77.64
82476;BME280;72099;43.176;76.872;2024-01-15T03:30:54;89976.50;;;-1.73;78.69
82476;BME280;72099;43.176;76.872;2024-01-15T03:33:55;89965.34;;;-1.53;78.58
82476;BME280;72099;43.176;76.872;2024-01-15T03:36:56;89970.50;;;-1.53;77.61
82476;BME280;72099;43.176;76.872;2024-01-15T03:40:17;89954.34;;;-1.84;77.53
82476;BME280;72099;43.176;76.872;2024-01-15T03:43:18;89939.47;;;-2.02;79.22
82476;BME280;72099;43.176;76.872;2024-01-15T03:46:19;89950.94;;;-1.69;79.43
82476;BME280;72099;43.176;76.872;2024-01-15T03:49:20;89960.22;;;-1.63;78.35
82476;BME280;72099;43.176;76.872;2024-01-15T03:52:21;89971.06;;;-1.71;77.45
82476;BME280;72099;43.176;76.872;2024-01-15T03:55:22;89979.63;;;-1.96;78.02
82476;BME280;72099;43.176;76.872;2024-01-15T03:58:22;89998.50;;;-2.26;78.63
82476;BME280;72099;43.176;76.872;2024-01-15T04:01:23;89995.41;;;-2.49;78.78
82476;BME280;72099;43.176;76.872;2024-01-15T04:04:24;89992.34;;;-2.56;78.76
82476;BME280;72099;43.176;76.872;2024-01-15T04:07:25;90002.38;;;-2.64;78.21
82476;BME280;72099;43.176;76.872;2024-01-15T04:10:26;89989.97;;;-3.03;78.87
82476;BME280;72099;43.176;76.872;2024-01-15T04:13:27;90024.72;;;-3.06;79.07
82476;BME280;72099;43.176;76.872;2024-01-15T04:16:28;90025.97;;;-3.18;80.00
82476;BME280;72099;43.176;76.872;2024-01-15T04:19:32;90029.84;;;-3.06;79.42
82476;BME280;72099;43.176;76.872;2024-01-15T04:22:35;90026.25;;;-3.05;80.73
82476;BME280;72099;43.176;76.872;2024-01-15T04:25:36;90028.53;;;-3.13;79.20
82476;BME280;72099;43.176;76.872;2024-01-15T04:28:37;90030.13;;;-3.02;80.54
82476;BME280;72099;43.176;76.872;2024-01-15T04:31:37;90059.00;;;-2.75;80.23
82476;BME280;72099;43.176;76.872;2024-01-15T04:34:38;90060.03;;;-2.86;78.17
82476;BME280;72099;43.176;76.872;2024-01-15T04:37:39;90037.06;;;-3.03;79.18
82476;BME280;72099;43.176;76.872;2024-01-15T04:40:40;90027.53;;;-3.12;79.08
82476;BME280;72099;43.176;76.872;2024-01-15T04:43:41;90068.69;;;-3.12;79.17
82476;BME280;72099;43.176;76.872;2024-01-15T04:46:42;90068.88;;;-3.29;79.39
82476;BME280;72099;43.176;76.872;2024-01-15T04:49:44;90098.69;;;-3.38;78.51
82476;BME280;72099;43.176;76.872;2024-01-15T04:52:45;90105.38;;;-3.37;78.91
82476;BME280;72099;43.176;76.872;2024-01-15T04:55:46;90087.38;;;-3.32;79.85
82476;BME280;72099;43.176;76.872;2024-01-15T04:58:46;90097.09;;;-3.39;79.49
82476;BME280;72099;43.176;76.872;2024-01-15T05:01:48;90096.84;;;-3.43;77.98
82476;BME280;72099;43.176;76.872;2024-01-15T05:04:49;90100.72;;;-3.40;79.06
82476;BME280;72099;43.176;76.872;2024-01-15T05:07:50;90047.09;;;-3.74;77.81
82476;BME280;72099;43.176;76.872;2024-01-15T05:10:50;90072.09;;;-3.59;79.45
82476;BME280;72099;43.176;76.872;2024-01-15T05:13:51;90076.34;;;-3.28;78.61
82476;BME280;72099;43.176;76.872;2024-01-15T05:16:52;90068.56;;;-3.48;78.10
82476;BME280;72099;43.176;76.872;2024-01-15T05:19:55;90071.28;;;-3.65;77.15
82476;BME280;72099;43.176;76.872;2024-01-15T05:22:56;90049.25;;;-4.03;78.29
82476;BME280;72099;43.176;76.872;2024-01-15T05:25:58;90048.06;;;-4.27;78.98
82476;BME280;72099;43.176;76.872;2024-01-15T05:28:59;90036.44;;;-4.35;79.70
82476;BME280;72099;43.176;76.872;2024-01-15T05:32:00;90043.34;;;-4.40;79.55
82476;BME280;72099;43.176;76.872;2024-01-15T05:35:01;90037.34;;;-4.51;78.54
82476;BME280;72099;43.176;76.872;2024-01-15T05:38:01;90020.91;;;-4.55;79.02
82476;BME280;72099;43.176;76.872;2024-01-15T05:41:04;89987.38;;;-4.76;79.58
82476;BME280;72099;43.176;76.872;2024-01-15T05:44:05;90012.97;;;-4.54;79.78
82476;BME280;72099;43.176;76.872;2024-01-15T05:47:06;90022.69;;;-4.56;78.82
82476;BME280;72099;43.176;76.872;2024-01-15T05:50:08;90009.28;;;-4.63;79.00
82476;BME280;72099;43.176;76.872;2024-01-15T05:53:09;90031.88;;;-4.60;78.81
82476;BME280;72099;43.176;76.872;2024-01-15T05:56:10;90017.00;;;-4.58;79.43
82476;BME280;72099;43.176;76.872;2024-01-15T05:59:11;90044.00;;;-4.55;79.65
82476;BME280;72099;43.176;76.872;2024-01-15T06:02:12;90020.84;;;-4.60;79.95
82476;BME280;72099;43.176;76.872;2024-01-15T06:05:13;90008.09;;;-4.82;79.22
82476;BME280;72099;43.176;76.872;2024-01-15T06:08:14;90015.06;;;-4.78;80.22
82476;BME280;72099;43.176;76.872;2024-01-15T06:11:15;90025.34;;;-4.78;80.41
82476;BME280;72099;43.176;76.872;2024-01-15T06:14:16;90017.31;;;-4.86;79.55
82476;BME280;72099;43.176;76.872;2024-01-15T06:17:16;90038.34;;;-4.84;79.63
82476;BME280;72099;43.176;76.872;2024-01-15T06:20:17;90006.94;;;-4.96;79.63
82476;BME280;72099;43.176;76.872;2024-01-15T06:23:18;90025.00;;;-5.13;79.59
82476;BME280;72099;43.176;76.872;2024-01-15T06:26:19;90030.78;;;-5.01;80.33
82476;BME280;72099;43.176;76.872;2024-01-15T06:29:20;90062.81;;;-5.03;80.24
82476;BME280;72099;43.176;76.872;2024-01-15T06:32:21;90029.41;;;-5.09;80.20
82476;BME280;72099;43.176;76.872;2024-01-15T06:35:22;90064.31;;;-5.08;80.12
82476;BME280;72099;43.176;76.872;2024-01-15T06:38:22;90014.19;;;-5.20;80.30
82476;BME280;72099;43.176;76.872;2024-01-15T06:41:25;90046.91;;;-5.27;80.94
82476;BME280;72099;43.176;76.872;2024-01-15T06:44:26;90007.84;;;-5.40;80.93
82476;BME280;72099;43.176;76.872;2024-01-15T06:47:27;90039.22;;;-5.27;81.41
82476;BME280;72099;43.176;76.872;2024-01-15T06:50:28;90027.53;;;-5.18;81.18
82476;BME280;72099;43.176;76.872;2024-01-15T06:53:29;90029.72;;;-5.05;81.67
82476;BME280;72099;43.176;76.872;2024-01-15T06:56:30;90043.34;;;-4.72;82.34
82476;BME280;72099;43.176;76.872;2024-01-15T06:59:31;90060.34;;;-4.66;80.20
82476;BME280;72099;43.176;76.872;2024-01-15T07:02:32;90078.28;;;-4.66;80.86
82476;BME280;72099;43.176;76.872;2024-01-15T07:05:33;90060.97;;;-4.81;81.10
82476;BME280;72099;43.176;76.872;2024-01-15T07:08:34;90078.53;;;-4.68;81.67
82476;BME280;72099;43.176;76.872;2024-01-15T07:11:35;90095.75;;;-4.31;82.61
82476;BME280;72099;43.176;76.872;2024-01-15T07:14:36;90114.75;;;-4.32;80.76
82476;BME280;72099;43.176;76.872;2024-01-15T07:17:36;90124.81;;;-4.58;81.08
82476;BME280;72099;43.176;76.872;2024-01-15T07:20:40;90134.53;;;-4.87;80.11
82476;BME280;72099;43.176;76.872;2024-01-15T07:23:41;90140.69;;;-5.10;80.65
82476;BME280;72099;43.176;76.872;2024-01-15T07:26:43;90142.38;;;-5.20;81.49
82476;BME280;72099;43.176;76.872;2024-01-15T07:29:43;90145.88;;;-5.26;81.76
82476;BME280;72099;43.176;76.872;2024-01-15T07:32:44;90163.19;;;-5.17;81.88
82476;BME280;72099;43.176;76.872;2024-01-15T07:35:45;90176.72;;;-4.99;81.96
82476;BME280;72099;43.176;76.872;2024-01-15T07:38:47;90163.34;;;-5.01;83.02
82476;BME280;72099;43.176;76.872;2024-01-15T07:41:48;90159.03;;;-4.96;82.57
82476;BME280;72099;43.176;76.872;2024-01-15T07:44:48;90163.50;;;-4.86;81.95
82476;BME280;72099;43.176;76.872;2024-01-15T07:47:51;90149.38;;;-4.67;82.07
82476;BME280;72099;43.176;76.872;2024-01-15T07:50:52;90144.31;;;-4.57;82.92
82476;BME280;72099;43.176;76.872;2024-01-15T07:53:54;90140.50;;;-4.81;79.99
82476;BME280;72099;43.176;76.872;2024-01-15T07:57:03;90136.97;;;-4.97;81.32
82476;BME280;72099;43.176;76.872;2024-01-15T08:04:00;90104.97;;;-5.16;83.32
82476;BME280;72099;43.176;76.872;2024-01-15T08:07:01;90136.56;;;-4.89;82.29
82476;BME280;72099;43.176;76.872;2024-01-15T08:10:03;90129.28;;;-4.97;80.67
82476;BME280;72099;43.176;76.872;2024-01-15T08:13:04;90158.75;;;-4.99;81.10
82476;BME280;72099;43.176;76.872;2024-01-15T08:16:05;90161.44;;;-4.89;81.97
82476;BME280;72099;43.176;76.872;2024-01-15T08:19:06;90147.78;;;-5.17;80.62
82476;BME280;72099;43.176;76.872;2024-01-15T08:22:07;90164.34;;;-5.24;80.19
82476;BME280;72099;43.176;76.872;2024-01-15T08:25:08;90168.16;;;-5.27;80.86
82476;BME280;72099;43.176;76.872;2024-01-15T08:28:09;90146.41;;;-5.24;81.25
82476;BME280;72099;43.176;76.872;2024-01-15T08:31:10;90168.84;;;-5.15;80.44
82476;BME280;72099;43.176;76.872;2024-01-15T08:34:11;90153.69;;;-5.38;80.47
82476;BME280;72099;43.176;76.872;2024-01-15T08:37:12;90151.63;;;-5.58;80.24
82476;BME280;72099;43.176;76.872;2024-01-15T08:40:13;90156.69;;;-5.63;80.80
82476;BME280;72099;43.176;76.872;2024-01-15T08:43:14;90129.94;;;-5.89;80.47
82476;BME280;72099;43.176;76.872;2024-01-15T08:46:15;90124.00;;;-5.95;80.03
82476;BME280;72099;43.176;76.872;2024-01-15T08:49:16;90102.78;;;-6.12;80.81
82476;BME280;72099;43.176;76.872;2024-01-15T08:52:17;90137.38;;;-5.87;80.67
82476;BME280;72099;43.176;76.872;2024-01-15T08:55:18;90133.81;;;-5.86;80.83
82476;BME280;72099;43.176;76.872;2024-01-15T08:58:19;90103.44;;;-6.00;80.42
82476;BME280;72099;43.176;76.872;2024-01-15T09:01:19;90117.53;;;-5.80;80.24
82476;BME280;72099;43.176;76.872;2024-01-15T09:04:21;90110.56;;;-5.85;81.09
82476;BME280;72099;43.176;76.872;2024-01-15T09:07:21;90127.91;;;-5.70;80.19
82476;BME280;72099;43.176;76.872;2024-01-15T09:10:22;90129.69;;;-5.87;79.81
82476;BME280;72099;43.176;76.872;2024-01-15T09:13:24;90164.63;;;-5.81;80.73
82476;BME280;72099;43.176;76.872;2024-01-15T09:16:25;90135.50;;;-5.97;80.75
82476;BME280;72099;43.176;76.872;2024-01-15T09:19:26;90170.47;;;-5.86;79.81
82476;BME280;72099;43.176;76.872;2024-01-15T09:22:27;90184.47;;;-5.93;80.28
82476;BME280;72099;43.176;76.872;2024-01-15T09:25:28;90182.91;;;-6.11;79.80
82476;BME280;72099;43.176;76.872;2024-01-15T09:28:29;90196.56;;;-6.22;80.74
82476;BME280;72099;43.176;76.872;2024-01-15T09:31:30;90206.94;;;-6.12;80.37
82476;BME280;72099;43.176;76.872;2024-01-15T09:34:31;90198.88;;;-6.21;80.97
82476;BME280;72099;43.176;76.872;2024-01-15T09:37:32;90155.50;;;-6.44;80.41
82476;BME280;72099;43.176;76.872;2024-01-15T09:40:33;90183.22;;;-6.25;80.18
82476;BME280;72099;43.176;76.872;2024-01-15T09:43:34;90197.25;;;-6.10;80.67
82476;BME280;72099;43.176;76.872;2024-01-15T09:46:38;90191.75;;;-6.19;80.18
82476;BME280;72099;43.176;76.872;2024-01-15T09:49:40;90156.09;;;-6.54;80.50
82476;BME280;72099;43.176;76.872;2024-01-15T09:52:42;90217.66;;;-6.15;80.57
82476;BME280;72099;43.176;76.872;2024-01-15T09:55:43;90217.34;;;-6.19;80.55
82476;BME280;72099;43.176;76.872;2024-01-15T09:58:45;90230.91;;;-6.18;80.51
82476;BME280;72099;43.176;76.872;2024-01-15T10:01:46;90239.31;;;-6.06;80.85
82476;BME280;72099;43.176;76.872;2024-01-15T10:04:48;90237.66;;;-6.12;80.14
82476;BME280;72099;43.176;76.872;2024-01-15T10:07:50;90265.91;;;-6.07;79.40
82476;BME280;72099;43.176;76.872;2024-01-15T10:10:52;90249.13;;;-6.32;79.43
82476;BME280;72099;43.176;76.872;2024-01-15T10:13:53;90277.91;;;-6.25;79.79
82476;BME280;72099;43.176;76.872;2024-01-15T10:16:55;90272.38;;;-6.33;80.36
82476;BME280;72099;43.176;76.872;2024-01-15T10:23:46;90288.50;;;-6.33;80.37
82476;BME280;72099;43.176;76.872;2024-01-15T10:26:47;90302.84;;;-6.32;79.71
82476;BME280;72099;43.176;76.872;2024-01-15T10:33:43;90300.16;;;-6.25;79.28
82476;BME280;72099;43.176;76.872;2024-01-15T10:36:46;90297.22;;;-6.45;79.74
82476;BME280;72099;43.176;76.872;2024-01-15T10:39:48;90299.78;;;-6.45;80.18
82476;BME280;72099;43.176;76.872;2024-01-15T10:42:49;90296.22;;;-6.44;79.74
82476;BME280;72099;43.176;76.872;2024-01-15T10:45:51;90297.78;;;-6.43;80.48
82476;BME280;72099;43.176;76.872;2024-01-15T10:48:52;90301.66;;;-6.41;80.64
82476;BME280;72099;43.176;76.872;2024-01-15T10:51:53;90285.56;;;-6.53;79.92
82476;BME280;72099;43.176;76.872;2024-01-15T10:54:55;90305.91;;;-6.46;80.38
82476;BME280;72099;43.176;76.872;2024-01-15T10:57:57;90302.13;;;-6.44;80.04
82476;BME280;72099;43.176;76.872;2024-01-15T11:00:58;90296.03;;;-6.55;79.41
82476;BME280;72099;43.176;76.872;2024-01-15T11:03:59;90317.03;;;-6.53;80.29
82476;BME280;72099;43.176;76.872;2024-01-15T11:07:01;90313.47;;;-6.51;79.79
82476;BME280;72099;43.176;76.872;2024-01-15T11:10:04;90314.72;;;-6.54;80.18
82476;BME280;72099;43.176;76.872;2024-01-15T11:13:05;90304.06;;;-6.63;79.67
82476;BME280;72099;43.176;76.872;2024-01-15T11:16:08;90346.63;;;-6.45;79.81
82476;BME280;72099;43.176;76.872;2024-01-15T11:19:12;90336.63;;;-6.46;79.74
82476;BME280;72099;43.176;76.872;2024-01-15T11:25:36;90337.16;;;-6.44;79.84
82476;BME280;72099;43.176;76.872;2024-01-15T11:28:47;90374.19;;;-6.35;79.86
82476;BME280;72099;43.176;76.872;2024-01-15T11:34:56;90390.56;;;-6.48;79.61
82476;BME280;72099;43.176;76.872;2024-01-15T11:37:58;90379.03;;;-6.62;79.67
82476;BME280;72099;43.176;76.872;2024-01-15T11:40:59;90381.13;;;-6.59;80.08
82476;BME280;72099;43.176;76.872;2024-01-15T11:44:02;90359.91;;;-6.71;79.60
82476;BME280;72099;43.176;76.872;2024-01-15T11:47:05;90395.78;;;-6.55;80.32
82476;BME280;72099;43.176;76.872;2024-01-15T11:56:44;90385.34;;;-6.65;80.13
82476;BME280;72099;43.176;76.872;2024-01-15T11:59:45;90400.69;;;-6.65;80.22
82476;BME280;72099;43.176;76.872;2024-01-15T12:02:47;90390.03;;;-6.73;79.76
82476;BME280;72099;43.176;76.872;2024-01-15T12:05:48;90405.94;;;-6.60;80.55
82476;BME280;72099;43.176;76.872;2024-01-15T12:16:01;90408.13;;;-6.51;79.33
82476;BME280;72099;43.176;76.872;2024-01-15T12:19:05;90384.47;;;-6.70;79.85
82476;BME280;72099;43.176;76.872;2024-01-15T12:22:06;90413.81;;;-6.49;80.51
82476;BME280;72099;43.176;76.872;2024-01-15T12:25:07;90417.47;;;-6.45;79.29
82476;BME280;72099;43.176;76.872;2024-01-15T12:31:35;90440.91;;;-6.25;79.91
82476;BME280;72099;43.176;76.872;2024-01-15T12:34:37;90423.22;;;-6.27;79.50
82476;BME280;72099;43.176;76.872;2024-01-15T12:37:42;90412.66;;;-6.18;79.61
82476;BME280;72099;43.176;76.872;2024-01-15T12:40:43;90417.28;;;-6.04;79.43
82476;BME280;72099;43.176;76.872;2024-01-15T12:43:46;90405.19;;;-6.08;79.01
82476;BME280;72099;43.176;76.872;2024-01-15T12:46:48;90413.72;;;-6.03;79.12
82476;BME280;72099;43.176;76.872;2024-01-15T12:49:54;90395.16;;;-6.10;78.78
82476;BME280;72099;43.176;76.872;2024-01-15T12:52:55;90398.31;;;-5.91;78.88
82476;BME280;72099;43.176;76.872;2024-01-15T12:55:56;90376.63;;;-6.00;78.85
82476;BME280;72099;43.176;76.872;2024-01-15T12:58:57;90382.03;;;-5.85;79.20
82476;BME280;72099;43.176;76.872;2024-01-15T13:01:58;90320.50;;;-6.18;79.30
82476;BME280;72099;43.176;76.872;2024-01-15T13:04:59;90372.72;;;-5.74;79.32
82476;BME280;72099;43.176;76.872;2024-01-15T13:08:00;90363.72;;;-5.60;79.22
82476;BME280;72099;43.176;76.872;2024-01-15T13:11:01;90345.25;;;-5.62;79.76
82476;BME280;72099;43.176;76.872;2024-01-15T13:14:02;90341.47;;;-5.59;79.30
82476;BME280;72099;43.176;76.872;2024-01-15T13:17:03;90339.75;;;-5.54;79.74
82476;BME280;72099;43.176;76.872;2024-01-15T13:20:04;90357.47;;;-5.36;79.16
82476;BME280;72099;43.176;76.872;2024-01-15T13:23:05;90340.63;;;-5.31;79.60
82476;BME280;72099;43.176;76.872;2024-01-15T13:26:06;90344.34;;;-5.22;79.17
82476;BME280;72099;43.176;76.872;2024-01-15T13:29:35;90323.69;;;-5.16;79.88
82476;BME280;72099;43.176;76.872;2024-01-15T13:32:36;90311.34;;;-5.19;78.90
82476;BME280;72099;43.176;76.872;2024-01-15T13:35:37;90338.66;;;-4.91;78.91
82476;BME280;72099;43.176;76.872;2024-01-15T13:38:37;90335.31;;;-4.91;78.74
82476;BME280;72099;43.176;76.872;2024-01-15T13:41:38;90337.03;;;-4.97;78.78
82476;BME280;72099;43.176;76.872;2024-01-15T13:44:39;90336.44;;;-5.04;79.85
82476;BME280;72099;43.176;76.872;2024-01-15T13:47:42;90339.75;;;-5.03;80.23
82476;BME280;72099;43.176;76.872;2024-01-15T13:50:44;90333.63;;;-5.02;79.80
82476;BME280;72099;43.176;76.872;2024-01-15T13:53:45;90339.59;;;-4.97;79.09
82476;BME280;72099;43.176;76.872;2024-01-15T13:56:45;90322.88;;;-4.99;80.00
82476;BME280;72099;43.176;76.872;2024-01-15T13:59:47;90339.13;;;-4.94;79.48
82476;BME280;72099;43.176;76.872;2024-01-15T14:02:49;90337.13;;;-4.92;79.43
82476;BME280;72099;43.176;76.872;2024-01-15T14:05:50;90306.44;;;-5.03;79.48
82476;BME280;72099;43.176;76.872;2024-01-15T14:08:51;90332.13;;;-4.82;79.79
82476;BME280;72099;43.176;76.872;2024-01-15T14:11:52;90341.66;;;-4.77;78.94
82476;BME280;72099;43.176;76.872;2024-01-15T14:14:53;90342.25;;;-4.70;78.91
82476;BME280;72099;43.176;76.872;2024-01-15T14:17:55;90342.88;;;-4.63;79.91
82476;BME280;72099;43.176;76.872;2024-01-15T14:20:55;90304.06;;;-4.88;79.45
82476;BME280;72099;43.176;76.872;2024-01-15T14:23:56;90349.88;;;-4.58;78.70
82476;BME280;72099;43.176;76.872;2024-01-15T14:26:57;90348.56;;;-4.61;79.75
82476;BME280;72099;43.176;76.872;2024-01-15T14:33:43;90346.75;;;-4.60;79.60
82476;BME280;72099;43.176;76.872;2024-01-15T14:36:44;90367.91;;;-4.53;79.01
82476;BME280;72099;43.176;76.872;2024-01-15T14:39:46;90342.16;;;-4.80;78.98
82476;BME280;72099;43.176;76.872;2024-01-15T14:42:47;90371.25;;;-4.69;79.57
82476;BME280;72099;43.176;76.872;2024-01-15T14:45:48;90364.75;;;-4.77;80.11
82476;BME280;72099;43.176;76.872;2024-01-15T14:48:49;90367.66;;;-4.90;79.56
82476;BME280;72099;43.176;76.872;2024-01-15T14:51:50;90366.00;;;-4.96;80.04
82476;BME280;72099;43.176;76.872;2024-01-15T14:54:51;90366.34;;;-4.93;79.88
82476;BME280;72099;43.176;76.872;2024-01-15T14:57:54;90360.34;;;-4.98;79.41
82476;BME280;72099;43.176;76.872;2024-01-15T15:00:55;90341.88;;;-5.17;79.86
82476;BME280;72099;43.176;76.872;2024-01-15T15:03:56;90337.06;;;-5.30;80.07
82476;BME280;72099;43.176;76.872;2024-01-15T15:06:57;90294.00;;;-5.62;80.11
82476;BME280;72099;43.176;76.872;2024-01-15T15:09:57;90338.84;;;-5.31;80.47
82476;BME280;72099;43.176;76.872;2024-01-15T15:12:59;90255.03;;;-5.81;80.60
82476;BME280;72099;43.176;76.872;2024-01-15T15:16:00;90308.41;;;-5.44;80.70
82476;BME280;72099;43.176;76.872;2024-01-15T15:19:01;90316.88;;;-5.44;80.39
82476;BME280;72099;43.176;76.872;2024-01-15T15:22:02;90304.44;;;-5.52;80.97
82476;BME280;72099;43.176;76.872;2024-01-15T15:25:03;90316.00;;;-5.49;80.65
82476;BME280;72099;43.176;76.872;2024-01-15T15:28:04;90297.38;;;-5.45;80.93
82476;BME280;72099;43.176;76.872;2024-01-15T15:31:09;90294.47;;;-5.48;79.83
82476;BME280;72099;43.176;76.872;2024-01-15T15:34:11;90303.97;;;-5.49;80.43
82476;BME280;72099;43.176;76.872;2024-01-15T15:37:12;90323.13;;;-5.51;80.13
82476;BME280;72099;43.176;76.872;2024-01-15T15:40:17;90309.94;;;-5.60;80.09
82476;BME280;72099;43.176;76.872;2024-01-15T15:43:18;90312.25;;;-5.75;79.42
82476;BME280;72099;43.176;76.872;2024-01-15T15:46:19;90321.78;;;-5.87;79.87
82476;BME280;72099;43.176;76.872;2024-01-15T15:49:20;90327.53;;;-5.97;79.95
82476;BME280;72099;43.176;76.872;2024-01-15T15:52:21;90343.50;;;-6.07;79.58
82476;BME280;72099;43.176;76.872;2024-01-15T15:55:22;90339.50;;;-6.14;80.25
82476;BME280;72099;43.176;76.872;2024-01-15T15:58:24;90330.97;;;-6.20;80.60
82476;BME280;72099;43.176;76.872;2024-01-15T16:01:25;90331.88;;;-6.26;80.39
82476;BME280;72099;43.176;76.872;2024-01-15T16:04:25;90303.56;;;-6.36;80.53
82476;BME280;72099;43.176;76.872;2024-01-15T16:07:27;90300.06;;;-6.30;79.82
82476;BME280;72099;43.176;76.872;2024-01-15T16:10:29;90303.22;;;-6.11;80.14
82476;BME280;72099;43.176;76.872;2024-01-15T16:13:30;90283.34;;;-6.21;79.97
82476;BME280;72099;43.176;76.872;2024-01-15T16:16:31;90296.75;;;-6.14;80.53
82476;BME280;72099;43.176;76.872;2024-01-15T16:19:32;90283.84;;;-6.36;80.15
82476;BME280;72099;43.176;76.872;2024-01-15T16:22:33;90293.41;;;-6.31;80.55
82476;BME280;72099;43.176;76.872;2024-01-15T16:25:34;90294.09;;;-6.36;80.20
82476;BME280;72099;43.176;76.872;2024-01-15T16:28:38;90310.03;;;-6.17;80.43